createdAt,value
2023-04-15T00:00:24.275Z,4.23
2023-04-15T00:03:28.616Z,3.87
2023-04-15T00:06:31.759Z,3.93
2023-04-15T00:09:34.418Z,3.50
2023-04-15T00:12:37.089Z,3.50
2023-04-15T00:15:39.758Z,3.70
2023-04-15T00:18:43.792Z,4.00
2023-04-15T00:21:46.441Z,3.80
2023-04-15T00:24:49.077Z,3.53
2023-04-15T00:27:51.695Z,3.50
2023-04-15T00:30:54.403Z,3.53
2023-04-15T00:33:58.478Z,3.27
2023-04-15T00:37:01.122Z,3.40
2023-04-15T00:40:04.960Z,3.70
2023-04-15T00:43:07.705Z,3.20
2023-04-15T00:46:10.975Z,3.63
2023-04-15T00:49:15.197Z,3.43
2023-04-15T00:52:18.052Z,3.10
2023-04-15T00:55:20.902Z,3.30
2023-04-15T00:58:24.387Z,3.37
2023-04-15T01:01:27.715Z,3.60
2023-04-15T01:04:32.046Z,3.40
2023-04-15T01:07:34.830Z,3.33
2023-04-15T01:10:37.911Z,3.60
2023-04-15T01:13:41.456Z,3.53
2023-04-15T01:16:45.290Z,3.43
2023-04-15T01:19:49.558Z,3.40
2023-04-15T01:22:52.691Z,3.50
2023-04-15T01:25:58.433Z,3.63
2023-04-15T01:29:01.417Z,3.40
2023-04-15T01:32:04.462Z,3.43
2023-04-15T01:35:07.777Z,3.67
2023-04-15T01:38:12.373Z,3.93
2023-04-15T01:41:16.351Z,3.83
2023-04-15T01:44:18.962Z,3.93
2023-04-15T01:47:21.816Z,3.43
2023-04-15T01:50:24.939Z,4.17
2023-04-15T01:53:27.628Z,4.30
2023-04-15T01:56:31.655Z,4.10
2023-04-15T01:59:34.318Z,4.13
2023-04-15T02:02:37.075Z,3.43
2023-04-15T02:05:39.763Z,4.60
2023-04-15T02:08:42.531Z,4.27
2023-04-15T02:11:46.911Z,4.83
2023-04-15T02:14:49.507Z,5.70
2023-04-15T02:17:55.131Z,5.80
2023-04-15T02:20:58.546Z,5.60
2023-04-15T02:24:02.266Z,6.03
2023-04-15T02:27:06.342Z,6.13
2023-04-15T02:30:09.623Z,6.40
2023-04-15T02:33:12.700Z,7.00
2023-04-15T02:36:15.614Z,7.07
2023-04-15T02:39:18.749Z,7.20
2023-04-15T02:42:22.787Z,8.20
2023-04-15T02:45:27.536Z,7.70
2023-04-15T02:48:30.287Z,7.80
2023-04-15T02:51:32.950Z,9.37
2023-04-15T02:54:35.632Z,8.10
2023-04-15T02:57:41.035Z,8.57
2023-04-15T03:00:43.713Z,10.30
2023-04-15T03:03:46.651Z,9.83
2023-04-15T03:06:49.427Z,10.03
2023-04-15T03:09:52.400Z,10.47
2023-04-15T03:12:56.408Z,10.30
2023-04-15T03:15:59.034Z,9.93
2023-04-15T03:19:02.011Z,11.17
2023-04-15T03:22:04.832Z,10.30
2023-04-15T03:25:07.729Z,11.03
2023-04-15T03:28:11.737Z,11.77
2023-04-15T03:31:14.665Z,11.47
2023-04-15T03:34:17.419Z,11.30
2023-04-15T03:37:20.006Z,10.97
2023-04-15T03:40:22.902Z,11.00
2023-04-15T03:43:27.241Z,10.40
2023-04-15T03:46:30.021Z,9.90
2023-04-15T03:49:32.678Z,10.03
2023-04-15T03:52:35.404Z,11.00
2023-04-15T03:55:38.075Z,9.17
2023-04-15T03:58:42.155Z,10.20
2023-04-15T04:01:44.855Z,11.03
2023-04-15T04:04:47.606Z,10.90
2023-04-15T04:07:50.620Z,11.03
2023-04-15T04:10:53.224Z,10.00
2023-04-15T04:13:57.271Z,11.07
2023-04-15T04:16:59.962Z,12.57
2023-04-15T04:20:02.666Z,12.93
2023-04-15T04:23:05.544Z,12.97
2023-04-15T04:26:08.179Z,13.03
2023-04-15T04:29:12.166Z,13.57
2023-04-15T04:32:14.915Z,14.47
2023-04-15T04:35:17.627Z,15.33
2023-04-15T04:38:20.263Z,15.63
2023-04-15T04:41:22.992Z,16.63
2023-04-15T04:44:27.008Z,17.60
2023-04-15T04:47:30.141Z,16.47
2023-04-15T04:50:33.316Z,17.33
2023-04-15T04:53:37.382Z,17.90
2023-04-15T04:56:40.301Z,18.27
2023-04-15T04:59:44.351Z,17.97
2023-04-15T05:02:47.305Z,19.00
2023-04-15T05:05:50.234Z,17.23
2023-04-15T05:08:52.944Z,18.97
2023-04-15T05:11:56.096Z,21.00
2023-04-15T05:15:00.160Z,21.00
2023-04-15T05:18:02.797Z,21.90
2023-04-15T05:21:06.253Z,21.57
2023-04-15T05:24:08.980Z,21.20
2023-04-15T05:27:11.795Z,22.67
2023-04-15T05:30:16.010Z,21.27
2023-04-15T05:33:19.045Z,20.60
2023-04-15T05:36:21.680Z,23.27
2023-04-15T05:39:24.376Z,22.23
2023-04-15T05:42:27.050Z,22.87
2023-04-15T05:45:31.247Z,23.30
2023-04-15T05:48:33.884Z,22.73
2023-04-15T05:51:36.992Z,23.17
2023-04-15T05:54:39.609Z,23.23
2023-04-15T05:57:42.257Z,23.83
2023-04-15T06:00:46.319Z,26.20
2023-04-15T06:03:49.439Z,24.50
2023-04-15T06:06:52.164Z,23.60
2023-04-15T06:09:54.868Z,25.30
2023-04-15T06:12:57.637Z,24.57
2023-04-15T06:16:01.698Z,24.43
2023-04-15T06:19:04.462Z,24.77
2023-04-15T06:22:07.936Z,25.97
2023-04-15T06:25:10.976Z,25.30
2023-04-15T06:28:13.636Z,25.03
2023-04-15T06:31:17.680Z,23.40
2023-04-15T06:34:20.346Z,24.30
2023-04-15T06:37:22.988Z,25.47
2023-04-15T06:40:25.932Z,26.90
2023-04-15T06:43:28.617Z,26.30
2023-04-15T06:46:32.724Z,26.00
2023-04-15T06:49:35.423Z,25.10
2023-04-15T06:52:38.125Z,25.93
2023-04-15T06:55:41.425Z,26.00
2023-04-15T06:58:44.080Z,25.87
2023-04-15T07:01:48.468Z,27.00
2023-04-15T07:04:51.125Z,26.77
2023-04-15T07:07:53.732Z,26.37
2023-04-15T07:10:57.097Z,27.50
2023-04-15T07:13:59.822Z,26.70
2023-04-15T07:17:03.837Z,27.00
2023-04-15T07:20:07.747Z,27.10
2023-04-15T07:23:10.535Z,26.17
2023-04-15T07:26:13.853Z,26.57
2023-04-15T07:29:16.502Z,28.20
2023-04-15T07:32:20.868Z,27.70
2023-04-15T07:35:23.622Z,27.33
2023-04-15T07:38:27.204Z,27.47
2023-04-15T07:41:30.156Z,27.23
2023-04-15T07:44:33.066Z,27.73
2023-04-15T07:47:37.218Z,27.90
2023-04-15T07:50:40.261Z,28.70
2023-04-15T07:53:43.304Z,28.53
2023-04-15T07:56:46.075Z,27.97
2023-04-15T07:59:48.703Z,28.50
2023-04-15T08:02:53.770Z,28.57
2023-04-15T08:05:56.645Z,28.57
2023-04-15T08:08:59.261Z,29.00
2023-04-15T08:12:02.045Z,29.73
2023-04-15T08:15:05.586Z,29.57
2023-04-15T08:18:09.620Z,29.93
2023-04-15T08:21:12.582Z,30.00
2023-04-15T08:24:15.579Z,28.30
2023-04-15T08:27:18.872Z,29.60
2023-04-15T08:30:21.608Z,29.57
2023-04-15T08:33:25.674Z,30.33
2023-04-15T08:36:28.470Z,28.47
2023-04-15T08:39:31.116Z,29.37
2023-04-15T08:42:38.035Z,29.47
2023-04-15T08:45:40.922Z,31.10
2023-04-15T08:48:45.518Z,30.33
2023-04-15T08:51:48.694Z,29.13
2023-04-15T08:54:52.166Z,29.30
2023-04-15T08:57:54.834Z,30.20
2023-04-15T09:00:58.364Z,30.07
2023-04-15T09:04:06.571Z,29.20
2023-04-15T09:07:09.362Z,29.27
2023-04-15T09:10:12.743Z,28.67
2023-04-15T09:13:15.449Z,27.67
2023-04-15T09:16:18.825Z,29.57
2023-04-15T09:19:24.873Z,27.67
2023-04-15T09:22:33.229Z,25.63
2023-04-15T09:25:36.127Z,26.83
2023-04-15T09:28:43.451Z,27.77
2023-04-15T09:31:46.393Z,26.20
2023-04-15T09:34:50.687Z,24.40
2023-04-15T09:37:54.115Z,23.47
2023-04-15T09:40:57.147Z,23.23
2023-04-15T09:43:59.990Z,23.27
2023-04-15T09:47:02.899Z,22.07
2023-04-15T09:50:07.804Z,21.50
2023-04-15T09:53:11.046Z,22.20
2023-04-15T09:56:13.700Z,21.03
2023-04-15T09:59:16.447Z,20.50
2023-04-15T10:02:21.319Z,20.23
2023-04-15T10:05:26.486Z,20.07
2023-04-15T10:08:31.426Z,18.77
2023-04-15T10:11:36.185Z,17.90
2023-04-15T10:14:39.824Z,19.13
2023-04-15T10:17:45.604Z,18.50
2023-04-15T10:20:50.313Z,16.97
2023-04-15T10:23:53.197Z,17.90
2023-04-15T10:26:57.246Z,16.63
2023-04-15T10:30:01.765Z,16.47
2023-04-15T10:33:06.146Z,18.03
2023-04-15T10:36:10.464Z,17.33
2023-04-15T10:39:40.790Z,17.43
2023-04-15T10:42:43.522Z,16.10
2023-04-15T10:45:46.210Z,14.43
2023-04-15T10:48:51.186Z,16.43
2023-04-15T10:52:00.909Z,15.33
2023-04-15T10:55:05.374Z,15.27
2023-04-15T10:58:08.043Z,15.87
2023-04-15T11:01:10.791Z,16.23
2023-04-15T11:04:13.672Z,15.43
2023-04-15T11:07:33.940Z,15.70
2023-04-15T11:10:52.974Z,15.57
2023-04-15T11:13:57.839Z,15.53
2023-04-15T11:17:00.548Z,14.60
2023-04-15T11:20:05.455Z,14.97
2023-04-15T11:23:15.354Z,13.70
2023-04-15T11:26:18.500Z,14.00
2023-04-15T11:29:21.218Z,14.30
2023-04-15T11:32:23.883Z,15.07
2023-04-15T11:35:26.726Z,12.73
2023-04-15T11:38:31.285Z,12.83
2023-04-15T11:41:34.038Z,12.90
2023-04-15T11:44:36.708Z,12.77
2023-04-15T11:47:40.351Z,12.60
2023-04-15T11:50:43.001Z,13.30
2023-04-15T11:53:48.271Z,13.10
2023-04-15T11:56:52.431Z,12.93
2023-04-15T11:59:56.324Z,12.53
2023-04-15T12:03:13.299Z,12.07
2023-04-15T12:06:19.290Z,11.03
2023-04-15T12:09:23.420Z,10.83
2023-04-15T12:12:28.536Z,11.77
2023-04-15T12:15:31.519Z,10.13
2023-04-15T12:18:34.271Z,11.50
2023-04-15T12:21:38.124Z,10.53
2023-04-15T12:24:46.941Z,10.73
2023-04-15T12:27:53.306Z,10.10
2023-04-15T12:30:56.091Z,12.07
2023-04-15T12:33:58.897Z,11.30
2023-04-15T12:37:03.170Z,11.67
2023-04-15T12:40:09.759Z,10.53
2023-04-15T12:43:12.827Z,10.87
2023-04-15T12:46:15.766Z,9.90
2023-04-15T12:49:20.732Z,10.40
2023-04-15T12:52:24.401Z,10.97
2023-04-15T12:55:28.669Z,10.93
2023-04-15T12:58:31.492Z,10.40
2023-04-15T13:01:34.382Z,10.80
2023-04-15T13:04:37.053Z,11.07
2023-04-15T13:07:39.732Z,10.80
2023-04-15T13:10:44.371Z,9.87
2023-04-15T13:13:47.027Z,11.20
2023-04-15T13:16:49.840Z,11.70
2023-04-15T13:19:52.488Z,12.17
2023-04-15T13:22:55.472Z,10.57
2023-04-15T13:25:59.498Z,10.97
2023-04-15T13:29:02.225Z,11.97
2023-04-15T13:32:05.063Z,12.20
2023-04-15T13:35:08.249Z,10.87
2023-04-15T13:38:10.876Z,10.83
2023-04-15T13:41:14.882Z,10.80
2023-04-15T13:44:17.504Z,11.13
2023-04-15T13:47:21.367Z,11.33
2023-04-15T13:50:25.302Z,10.57
2023-04-15T13:53:37.930Z,10.47
2023-04-15T13:56:43.333Z,10.80
2023-04-15T13:59:45.961Z,11.10
2023-04-15T14:02:49.167Z,11.83
2023-04-15T14:05:55.840Z,9.40
2023-04-15T14:08:58.593Z,9.10
2023-04-15T14:12:02.574Z,8.90
2023-04-15T14:15:06.159Z,8.90
2023-04-15T14:18:08.965Z,9.23
2023-04-15T14:21:11.694Z,8.30
2023-04-15T14:24:14.329Z,8.43
2023-04-15T14:27:18.304Z,7.80
2023-04-15T14:30:21.128Z,8.70
2023-04-15T14:33:24.223Z,8.43
2023-04-15T14:36:27.764Z,8.90
2023-04-15T14:39:30.488Z,9.10
2023-04-15T14:42:34.480Z,8.10
2023-04-15T14:45:40.552Z,8.10
2023-04-15T14:48:46.109Z,9.50
2023-04-15T14:51:48.758Z,9.30
2023-04-15T14:54:51.441Z,8.23
2023-04-15T14:57:55.586Z,8.40
2023-04-15T15:00:58.226Z,8.43
2023-04-15T15:04:01.162Z,8.10
2023-04-15T15:07:03.897Z,8.97
2023-04-15T15:10:07.900Z,9.67
2023-04-15T15:13:11.983Z,9.13
2023-04-15T15:16:14.888Z,9.83
2023-04-15T15:19:17.845Z,9.37
2023-04-15T15:22:21.446Z,8.77
2023-04-15T15:25:24.345Z,9.07
2023-04-15T15:28:28.400Z,9.70
2023-04-15T15:31:31.094Z,9.43
2023-04-15T15:34:33.799Z,9.57
2023-04-15T15:37:37.160Z,9.90
2023-04-15T15:40:40.224Z,10.03
2023-04-15T15:43:44.353Z,10.17
2023-04-15T15:46:47.136Z,9.57
2023-04-15T15:49:49.843Z,9.90
2023-04-15T15:52:52.612Z,9.77
2023-04-15T15:55:55.353Z,10.17
2023-04-15T15:58:59.351Z,9.83
2023-04-15T16:02:03.025Z,9.67
2023-04-15T16:05:06.689Z,9.83
2023-04-15T16:08:09.503Z,10.73
2023-04-15T16:11:12.189Z,11.10
2023-04-15T16:14:16.251Z,10.57
2023-04-15T16:17:18.909Z,10.77
2023-04-15T16:20:21.632Z,10.43
2023-04-15T16:23:24.781Z,11.17
2023-04-15T16:26:27.409Z,12.10
2023-04-15T16:29:31.504Z,11.30
2023-04-15T16:32:34.217Z,11.57
2023-04-15T16:35:36.925Z,11.73
2023-04-15T16:38:39.639Z,13.00
2023-04-15T16:41:42.777Z,13.07
2023-04-15T16:44:46.835Z,12.50
2023-04-15T16:47:49.626Z,12.13
2023-04-15T16:50:52.352Z,12.50
2023-04-15T16:53:55.048Z,12.63
2023-04-15T16:56:58.471Z,12.63
2023-04-15T17:00:02.466Z,13.77
2023-04-15T17:03:06.268Z,13.33
2023-04-15T17:06:09.245Z,13.80
2023-04-15T17:09:11.979Z,14.40
2023-04-15T17:12:15.055Z,14.37
2023-04-15T17:15:19.445Z,14.03
2023-04-15T17:18:22.123Z,13.87
2023-04-15T17:21:24.786Z,14.03
2023-04-15T17:24:27.573Z,13.90
2023-04-15T17:27:30.904Z,13.77
2023-04-15T17:30:34.940Z,14.63
2023-04-15T17:33:57.661Z,14.63
2023-04-15T17:37:00.469Z,14.50
2023-04-15T17:40:03.671Z,13.73
2023-04-15T17:43:06.667Z,13.30
2023-04-15T17:46:12.048Z,13.87
2023-04-15T17:49:14.949Z,13.63
2023-04-15T17:52:17.645Z,14.57
2023-04-15T17:55:22.003Z,14.00
2023-04-15T17:58:24.767Z,14.23
2023-04-15T18:01:28.866Z,14.47
2023-04-15T18:04:31.739Z,14.30
2023-04-15T18:07:35.798Z,13.67
2023-04-15T18:10:39.508Z,14.57
2023-04-15T18:13:43.630Z,14.07
2023-04-15T18:16:49.005Z,14.07
2023-04-15T18:19:52.409Z,14.23
2023-04-15T18:22:55.660Z,14.87
2023-04-15T18:25:58.807Z,15.33
2023-04-15T18:29:01.554Z,15.10
2023-04-15T18:32:05.880Z,13.63
2023-04-15T18:35:09.380Z,14.80
2023-04-15T18:38:12.024Z,15.17
2023-04-15T18:41:14.801Z,14.83
2023-04-15T18:44:17.569Z,14.53
2023-04-15T18:47:22.032Z,15.57
2023-04-15T18:50:24.692Z,15.80
2023-04-15T18:53:27.987Z,14.80
2023-04-15T18:56:31.381Z,15.80
2023-04-15T18:59:34.216Z,15.13
2023-04-15T19:02:38.437Z,15.73
2023-04-15T19:05:42.359Z,15.07
2023-04-15T19:08:45.015Z,15.83
2023-04-15T19:11:47.686Z,15.87
2023-04-15T19:14:50.427Z,15.50
2023-04-15T19:17:54.531Z,16.20
2023-04-15T19:20:57.503Z,16.37
2023-04-15T19:24:01.124Z,15.83
2023-04-15T19:27:03.824Z,16.97
2023-04-15T19:30:08.084Z,17.03
2023-04-15T19:33:12.095Z,17.33
2023-04-15T19:36:14.804Z,17.00
2023-04-15T19:39:17.446Z,16.73
2023-04-15T19:42:20.111Z,17.03
2023-04-15T19:45:22.790Z,16.27
2023-04-15T19:48:26.812Z,17.00
2023-04-15T19:51:29.531Z,15.93
2023-04-15T19:54:33.222Z,16.33
2023-04-15T19:57:35.930Z,16.13
2023-04-15T20:00:38.607Z,16.33
2023-04-15T20:03:42.881Z,16.17
2023-04-15T20:06:45.742Z,16.33
2023-04-15T20:09:48.352Z,14.97
2023-04-15T20:12:53.148Z,14.47
2023-04-15T20:15:56.172Z,15.10
2023-04-15T20:19:04.059Z,15.00
2023-04-15T20:22:06.918Z,14.97
2023-04-15T20:25:10.099Z,14.83
2023-04-15T20:28:12.868Z,15.83
2023-04-15T20:31:15.544Z,15.87
2023-04-15T20:34:19.585Z,14.43
2023-04-15T20:37:22.279Z,14.83
2023-04-15T20:40:25.075Z,15.50
2023-04-15T20:43:27.720Z,14.67
2023-04-15T20:46:30.513Z,15.47
2023-04-15T20:49:35.855Z,15.33
2023-04-15T20:52:39.568Z,14.47
2023-04-15T20:55:43.442Z,15.03
2023-04-15T20:58:46.166Z,15.50
2023-04-15T21:01:49.146Z,14.93
2023-04-15T21:04:53.199Z,16.00
2023-04-15T21:07:55.893Z,15.47
2023-04-15T21:10:58.596Z,15.53
2023-04-15T21:14:01.238Z,16.23
2023-04-15T21:17:08.516Z,16.03
2023-04-15T21:20:14.570Z,16.57
2023-04-15T21:23:17.222Z,14.80
2023-04-15T21:26:19.869Z,16.23
2023-04-15T21:29:22.484Z,14.83
2023-04-15T21:32:25.191Z,15.93
2023-04-15T21:35:30.440Z,15.90
2023-04-15T21:38:33.697Z,15.80
2023-04-15T21:41:37.529Z,17.00
2023-04-15T21:44:40.311Z,16.37
2023-04-15T21:47:56.799Z,16.07
2023-04-15T21:51:07.169Z,16.53
2023-04-15T21:54:10.007Z,16.37
2023-04-15T21:57:12.630Z,16.20
2023-04-15T22:00:15.946Z,17.13
2023-04-15T22:03:18.777Z,17.30
2023-04-15T22:06:23.080Z,15.97
2023-04-15T22:09:25.918Z,16.20
2023-04-15T22:12:28.551Z,15.50
2023-04-15T22:15:31.213Z,16.03
2023-04-15T22:18:33.839Z,16.00
2023-04-15T22:21:37.895Z,16.73
2023-04-15T22:24:40.609Z,16.57
2023-04-15T22:27:43.397Z,16.60
2023-04-15T22:30:46.080Z,16.07
2023-04-15T22:33:48.710Z,16.33
2023-04-15T22:36:53.606Z,15.63
2023-04-15T22:39:56.269Z,15.87
2023-04-15T22:42:58.969Z,16.40
2023-04-15T22:46:01.759Z,14.93
2023-04-15T22:49:04.767Z,15.80
2023-04-15T22:52:10.449Z,16.63
2023-04-15T22:55:15.513Z,16.97
2023-04-15T22:58:18.334Z,16.30
2023-04-15T23:01:21.145Z,15.63
2023-04-15T23:04:28.238Z,16.70
2023-04-15T23:07:32.532Z,15.47
2023-04-15T23:10:35.428Z,16.40
2023-04-15T23:13:38.092Z,16.87
2023-04-15T23:16:40.848Z,16.50
2023-04-15T23:19:44.039Z,17.57
2023-04-15T23:22:48.030Z,16.73
2023-04-15T23:25:50.809Z,17.00
2023-04-15T23:28:53.388Z,17.70
2023-04-15T23:31:56.146Z,16.87
2023-04-15T23:34:58.930Z,16.33
2023-04-15T23:38:02.937Z,16.97
2023-04-15T23:41:05.662Z,17.43
2023-04-15T23:44:09.620Z,17.07
2023-04-15T23:47:12.435Z,17.00
2023-04-15T23:50:15.045Z,16.57
2023-04-15T23:53:19.103Z,17.20
2023-04-15T23:56:21.794Z,16.90
2023-04-15T23:59:24.512Z,15.93
